createdAt,value
2022-10-04T00:01:48.434Z,7.37
2022-10-04T00:04:20.836Z,7.83
2022-10-04T00:06:53.679Z,8.30
2022-10-04T00:09:25.507Z,7.50
2022-10-04T00:11:56.613Z,8.03
2022-10-04T00:14:29.679Z,7.53
2022-10-04T00:16:59.690Z,7.67
2022-10-04T00:19:40.076Z,7.77
2022-10-04T00:22:22.217Z,7.80
2022-10-04T00:25:34.885Z,7.40
2022-10-04T00:28:42.585Z,7.27
2022-10-04T00:31:14.169Z,7.37
2022-10-04T00:33:43.609Z,6.80
2022-10-04T00:36:39.717Z,7.37
2022-10-04T00:39:43.187Z,8.07
2022-10-04T00:42:41.119Z,7.77
2022-10-04T00:45:25.713Z,6.97
2022-10-04T00:48:30.482Z,7.27
2022-10-04T00:51:05.995Z,8.03
2022-10-04T00:53:53.296Z,7.50
2022-10-04T00:56:28.131Z,6.97
2022-10-04T00:59:19.921Z,7.20
2022-10-04T01:01:53.990Z,7.60
2022-10-04T01:04:32.517Z,7.80
2022-10-04T01:07:06.581Z,7.10
2022-10-04T01:09:37.966Z,7.60
2022-10-04T01:12:13.005Z,8.40
2022-10-04T01:14:50.385Z,7.93
2022-10-04T01:17:20.130Z,7.97
2022-10-04T01:19:53.141Z,7.17
2022-10-04T01:22:37.665Z,8.43
2022-10-04T01:25:06.281Z,7.70
2022-10-04T01:27:41.446Z,7.90
2022-10-04T01:30:13.269Z,6.63
2022-10-04T01:32:41.607Z,7.40
2022-10-04T01:35:11.193Z,6.90
2022-10-04T01:37:40.964Z,7.53
2022-10-04T01:40:11.355Z,7.50
2022-10-04T01:42:45.071Z,7.70
2022-10-04T01:45:19.660Z,7.73
2022-10-04T01:47:53.365Z,8.37
2022-10-04T01:50:25.844Z,7.40
2022-10-04T01:53:01.355Z,7.53
2022-10-04T01:55:35.243Z,7.90
2022-10-04T01:58:10.221Z,7.50
2022-10-04T02:00:43.173Z,8.23
2022-10-04T02:03:17.512Z,7.73
2022-10-04T02:05:51.859Z,7.27
2022-10-04T02:08:27.100Z,7.03
2022-10-04T02:10:56.637Z,7.60
2022-10-04T02:13:30.011Z,7.20
2022-10-04T02:16:00.108Z,7.20
2022-10-04T02:18:29.905Z,7.73
2022-10-04T02:20:58.929Z,7.83
2022-10-04T02:23:29.227Z,8.00
2022-10-04T02:25:57.902Z,8.07
2022-10-04T02:28:26.499Z,7.40
2022-10-04T02:31:17.889Z,7.50
2022-10-04T02:33:49.597Z,7.07
2022-10-04T02:36:18.813Z,7.30
2022-10-04T02:38:52.641Z,7.10
2022-10-04T02:41:26.197Z,7.27
2022-10-04T02:43:59.282Z,8.40
2022-10-04T02:46:29.753Z,7.33
2022-10-04T02:49:00.662Z,7.10
2022-10-04T02:51:34.532Z,7.90
2022-10-04T02:54:11.441Z,7.20
2022-10-04T02:56:40.111Z,7.60
2022-10-04T02:59:08.804Z,8.17
2022-10-04T03:01:50.818Z,8.17
2022-10-04T03:04:23.229Z,8.30
2022-10-04T03:06:53.221Z,7.73
2022-10-04T03:09:29.515Z,8.80
2022-10-04T03:11:59.105Z,6.93
2022-10-04T03:14:29.482Z,7.57
2022-10-04T03:17:01.695Z,7.53
2022-10-04T03:19:32.277Z,6.97
2022-10-04T03:22:03.439Z,7.93
2022-10-04T03:24:35.365Z,7.40
2022-10-04T03:27:06.918Z,7.63
2022-10-04T03:29:35.774Z,7.90
2022-10-04T03:32:06.131Z,7.47
2022-10-04T03:34:39.727Z,6.70
2022-10-04T03:37:10.473Z,7.07
2022-10-04T03:39:43.411Z,7.40
2022-10-04T03:42:15.810Z,6.60
2022-10-04T03:44:45.875Z,6.60
2022-10-04T03:47:17.306Z,6.80
2022-10-04T03:49:50.689Z,7.20
2022-10-04T03:52:23.142Z,6.83
2022-10-04T03:54:54.678Z,5.73
2022-10-04T03:57:23.740Z,6.80
2022-10-04T03:59:52.784Z,6.20
2022-10-04T04:02:28.009Z,6.10
2022-10-04T04:05:06.715Z,6.73
2022-10-04T04:07:40.032Z,6.30
2022-10-04T04:10:19.205Z,6.70
2022-10-04T04:12:54.449Z,6.43
2022-10-04T04:15:22.959Z,6.17
2022-10-04T04:17:53.664Z,6.47
2022-10-04T04:20:26.775Z,6.60
2022-10-04T04:23:05.416Z,7.47
2022-10-04T04:25:39.458Z,6.97
2022-10-04T04:28:24.930Z,6.40
2022-10-04T04:30:57.999Z,6.57
2022-10-04T04:33:30.261Z,7.87
2022-10-04T04:36:05.839Z,6.00
2022-10-04T04:38:35.386Z,6.50
2022-10-04T04:41:12.063Z,6.40
2022-10-04T04:43:45.075Z,6.20
2022-10-04T04:46:28.725Z,6.93
2022-10-04T04:49:03.017Z,8.30
2022-10-04T04:51:33.496Z,7.30
2022-10-04T04:54:05.444Z,6.20
2022-10-04T04:56:36.235Z,5.90
2022-10-04T04:59:08.707Z,7.10
2022-10-04T05:01:42.863Z,5.87
2022-10-04T05:04:19.609Z,5.77
2022-10-04T05:06:49.703Z,5.60
2022-10-04T05:09:25.438Z,6.07
2022-10-04T05:11:59.839Z,6.17
2022-10-04T05:14:28.060Z,5.80
2022-10-04T05:16:56.866Z,6.20
2022-10-04T05:19:27.588Z,6.13
2022-10-04T05:21:57.694Z,5.87
2022-10-04T05:24:30.198Z,5.83
2022-10-04T05:27:02.764Z,7.50
2022-10-04T05:29:35.009Z,6.47
2022-10-04T05:32:17.419Z,4.77
2022-10-04T05:34:50.381Z,5.80
2022-10-04T05:37:59.311Z,5.37
2022-10-04T05:40:47.744Z,5.93
2022-10-04T05:43:30.934Z,5.90
2022-10-04T05:46:16.624Z,6.37
2022-10-04T05:48:46.909Z,6.13
2022-10-04T05:51:20.912Z,6.37
2022-10-04T05:53:50.209Z,6.40
2022-10-04T05:56:48.902Z,6.60
2022-10-04T05:59:35.221Z,5.67
2022-10-04T06:02:12.955Z,6.17
2022-10-04T06:04:56.972Z,6.50
2022-10-04T06:07:31.194Z,6.17
2022-10-04T06:10:20.179Z,7.07
2022-10-04T06:12:56.328Z,6.30
2022-10-04T06:15:51.672Z,6.10
2022-10-04T06:18:37.900Z,6.47
2022-10-04T06:21:18.488Z,6.83
2022-10-04T06:23:53.055Z,7.30
2022-10-04T06:26:25.591Z,8.00
2022-10-04T06:28:59.233Z,6.53
2022-10-04T06:31:57.063Z,7.03
2022-10-04T06:34:55.077Z,7.03
2022-10-04T06:37:39.552Z,6.63
2022-10-04T06:40:32.522Z,7.60
2022-10-04T06:43:15.329Z,6.83
2022-10-04T06:45:58.359Z,7.03
2022-10-04T06:48:41.391Z,7.03
2022-10-04T06:51:18.724Z,6.77
2022-10-04T06:54:01.411Z,7.00
2022-10-04T06:56:46.147Z,7.30
2022-10-04T06:59:36.298Z,8.57
2022-10-04T07:02:08.940Z,8.47
2022-10-04T07:07:38.338Z,9.37
2022-10-04T07:10:32.176Z,7.97
2022-10-04T07:13:16.327Z,9.63
2022-10-04T07:15:51.678Z,8.07
2022-10-04T07:18:26.393Z,6.70
2022-10-04T07:21:04.339Z,7.40
2022-10-04T07:23:37.098Z,6.93
2022-10-04T07:26:15.257Z,6.70
2022-10-04T07:29:04.969Z,6.63
2022-10-04T07:31:38.200Z,6.73
2022-10-04T07:34:15.760Z,6.70
2022-10-04T07:36:49.895Z,7.13
2022-10-04T07:39:22.247Z,7.33
2022-10-04T07:41:54.185Z,7.30
2022-10-04T07:44:34.473Z,7.00
2022-10-04T07:47:09.341Z,6.57
2022-10-04T07:49:41.852Z,7.60
2022-10-04T07:52:33.745Z,8.00
2022-10-04T07:55:12.493Z,9.30
2022-10-04T07:57:49.903Z,10.53
2022-10-04T08:00:21.952Z,10.17
2022-10-04T08:03:04.027Z,10.50
2022-10-04T08:05:38.128Z,10.57
2022-10-04T08:08:41.649Z,9.33
2022-10-04T08:11:21.131Z,9.17
2022-10-04T08:13:58.404Z,8.13
2022-10-04T08:16:37.007Z,8.67
2022-10-04T08:19:24.949Z,8.50
2022-10-04T08:22:01.123Z,8.87
2022-10-04T08:24:36.613Z,9.20
2022-10-04T08:27:28.828Z,9.10
2022-10-04T08:30:04.720Z,10.20
2022-10-04T08:32:52.108Z,8.67
2022-10-04T08:35:36.214Z,8.97
2022-10-04T08:38:22.354Z,7.90
2022-10-04T08:41:27.017Z,8.53
2022-10-04T08:44:27.220Z,7.93
2022-10-04T08:47:25.898Z,7.80
2022-10-04T08:50:26.057Z,9.03
2022-10-04T08:53:18.299Z,7.83
2022-10-04T08:56:05.102Z,8.33
2022-10-04T08:59:06.725Z,7.73
2022-10-04T09:01:56.945Z,6.93
2022-10-04T09:04:53.990Z,6.70
2022-10-04T09:07:49.735Z,7.87
2022-10-04T09:10:45.129Z,7.93
2022-10-04T09:13:41.350Z,7.73
2022-10-04T09:16:17.554Z,7.60
2022-10-04T09:19:05.886Z,6.23
2022-10-04T09:21:50.937Z,7.17
2022-10-04T09:24:38.046Z,6.90
2022-10-04T09:27:43.270Z,7.20
2022-10-04T09:30:19.654Z,6.57
2022-10-04T09:33:18.871Z,6.90
2022-10-04T09:36:24.811Z,6.07
2022-10-04T09:39:30.374Z,6.60
2022-10-04T09:42:24.911Z,6.30
2022-10-04T09:45:32.890Z,6.23
2022-10-04T09:48:26.142Z,6.23
2022-10-04T09:51:31.990Z,5.20
2022-10-04T09:54:21.082Z,5.83
2022-10-04T09:57:15.299Z,6.37
2022-10-04T10:00:18.536Z,5.80
2022-10-04T10:03:17.577Z,5.70
2022-10-04T10:05:56.846Z,5.70
2022-10-04T10:08:32.706Z,6.23
2022-10-04T10:11:29.379Z,4.93
2022-10-04T10:14:36.558Z,4.93
2022-10-04T10:17:16.114Z,4.87
2022-10-04T10:20:16.731Z,5.27
2022-10-04T10:23:26.747Z,5.50
2022-10-04T10:26:25.021Z,4.20
2022-10-04T10:29:16.480Z,4.50
2022-10-04T10:32:15.205Z,5.00
2022-10-04T10:35:03.192Z,4.50
2022-10-04T10:37:46.396Z,5.03
2022-10-04T10:40:33.068Z,4.40
2022-10-04T10:43:46.610Z,4.80
2022-10-04T10:46:37.923Z,5.57
2022-10-04T10:49:24.078Z,4.70
2022-10-04T10:52:25.448Z,4.90
2022-10-04T10:55:23.477Z,4.93
2022-10-04T10:58:23.618Z,5.00
2022-10-04T11:01:01.055Z,4.90
2022-10-04T11:04:25.304Z,6.17
2022-10-04T11:07:22.905Z,5.57
2022-10-04T11:10:38.390Z,5.43
2022-10-04T11:13:29.151Z,4.40
2022-10-04T11:16:19.634Z,4.90
2022-10-04T11:19:29.221Z,4.80
2022-10-04T11:22:44.786Z,5.07
2022-10-04T11:25:50.690Z,4.93
2022-10-04T11:28:27.445Z,5.20
2022-10-04T11:31:31.372Z,4.33
2022-10-04T11:34:24.907Z,4.77
2022-10-04T11:37:05.173Z,4.70
2022-10-04T11:39:53.580Z,4.67
2022-10-04T11:42:39.135Z,4.67
2022-10-04T11:45:38.370Z,4.40
2022-10-04T11:48:21.755Z,5.57
2022-10-04T11:51:11.097Z,4.63
2022-10-04T11:54:14.913Z,5.17
2022-10-04T11:57:12.096Z,4.73
2022-10-04T11:59:50.706Z,4.40
2022-10-04T12:02:47.372Z,5.03
2022-10-04T12:05:39.897Z,4.87
2022-10-04T12:08:28.543Z,4.10
2022-10-04T12:11:55.005Z,4.97
2022-10-04T12:14:38.885Z,3.93
2022-10-04T12:17:33.787Z,4.73
2022-10-04T12:20:19.793Z,3.90
2022-10-04T12:23:12.329Z,3.53
2022-10-04T12:26:10.337Z,4.00
2022-10-04T12:29:01.022Z,4.50
2022-10-04T12:31:32.474Z,3.83
2022-10-04T12:34:14.863Z,3.50
2022-10-04T12:37:13.636Z,3.23
2022-10-04T12:39:54.654Z,3.60
2022-10-04T12:42:32.569Z,3.37
2022-10-04T12:45:20.867Z,3.67
2022-10-04T12:48:13.702Z,3.10
2022-10-04T12:50:54.642Z,2.97
2022-10-04T12:53:35.514Z,3.10
2022-10-04T12:56:22.122Z,3.53
2022-10-04T12:59:07.320Z,3.40
2022-10-04T13:01:47.204Z,3.43
2022-10-04T13:04:25.464Z,3.50
2022-10-04T13:07:07.685Z,3.50
2022-10-04T13:10:05.492Z,3.60
2022-10-04T13:13:05.129Z,3.47
2022-10-04T13:18:32.991Z,2.80
2022-10-04T13:21:04.280Z,3.33
2022-10-04T13:23:48.846Z,2.77
2022-10-04T13:26:35.956Z,2.90
2022-10-04T13:29:10.549Z,3.50
2022-10-04T13:31:45.538Z,2.70
2022-10-04T13:34:25.588Z,3.20
2022-10-04T13:37:17.271Z,3.10
2022-10-04T13:40:14.499Z,3.00
2022-10-04T13:42:56.741Z,3.20
2022-10-04T13:45:57.563Z,3.33
2022-10-04T13:48:42.336Z,3.00
2022-10-04T13:51:35.102Z,2.67
2022-10-04T13:54:33.809Z,2.90
2022-10-04T13:57:17.117Z,2.50
2022-10-04T13:59:49.172Z,2.90
2022-10-04T14:02:43.710Z,2.40
2022-10-04T14:05:50.301Z,2.90
2022-10-04T14:08:45.587Z,2.70
2022-10-04T14:11:47.660Z,2.57
2022-10-04T14:14:52.219Z,2.37
2022-10-04T14:17:48.688Z,2.63
2022-10-04T14:20:46.572Z,2.73
2022-10-04T14:23:52.167Z,2.33
2022-10-04T14:26:52.560Z,2.40
2022-10-04T14:29:45.184Z,1.98
2022-10-04T14:32:46.104Z,2.33
2022-10-04T14:35:21.019Z,2.90
2022-10-04T14:38:31.312Z,2.70
2022-10-04T14:41:53.928Z,2.80
2022-10-04T14:44:51.552Z,3.10
2022-10-04T14:47:49.656Z,3.17
2022-10-04T14:50:24.904Z,2.60
2022-10-04T14:53:05.322Z,2.50
2022-10-04T14:55:55.976Z,2.50
2022-10-04T14:58:33.659Z,2.50
2022-10-04T15:01:19.210Z,2.50
2022-10-04T15:04:02.737Z,2.38
2022-10-04T15:06:40.199Z,2.33
2022-10-04T15:09:28.212Z,2.33
2022-10-04T15:12:32.604Z,2.55
2022-10-04T15:15:20.887Z,2.22
2022-10-04T15:18:02.135Z,2.00
2022-10-04T15:20:35.327Z,2.58
2022-10-04T15:23:15.919Z,2.08
2022-10-04T15:25:47.446Z,2.65
2022-10-04T15:28:46.371Z,2.85
2022-10-04T15:31:24.538Z,2.70
2022-10-04T15:34:04.939Z,2.50
2022-10-04T15:36:50.764Z,2.20
2022-10-04T15:39:58.002Z,2.10
2022-10-04T15:42:30.280Z,2.47
2022-10-04T15:45:23.315Z,2.80
2022-10-04T15:48:11.516Z,3.10
2022-10-04T15:50:55.176Z,3.43
2022-10-04T15:53:43.063Z,2.80
2022-10-04T15:56:27.187Z,3.37
2022-10-04T15:59:18.307Z,3.53
2022-10-04T16:01:58.955Z,4.23
2022-10-04T16:04:41.436Z,3.47
2022-10-04T16:07:34.056Z,3.73
2022-10-04T16:10:13.504Z,3.50
2022-10-04T16:13:07.347Z,3.50
2022-10-04T16:15:38.247Z,3.63
2022-10-04T16:18:26.220Z,3.50
2022-10-04T16:21:07.236Z,4.03
2022-10-04T16:23:36.630Z,3.53
2022-10-04T16:26:07.000Z,3.43
2022-10-04T16:29:08.966Z,4.17
2022-10-04T16:31:54.380Z,4.30
2022-10-04T16:34:48.237Z,3.87
2022-10-04T16:37:38.915Z,3.87
2022-10-04T16:40:25.817Z,4.07
2022-10-04T16:42:59.515Z,4.10
2022-10-04T16:45:41.994Z,4.00
2022-10-04T16:48:25.680Z,4.10
2022-10-04T16:51:15.273Z,3.80
2022-10-04T16:53:53.918Z,4.30
2022-10-04T16:56:24.157Z,3.57
2022-10-04T16:59:00.571Z,4.03
2022-10-04T17:02:01.545Z,3.60
2022-10-04T17:04:55.649Z,3.90
2022-10-04T17:07:34.538Z,3.80
2022-10-04T17:10:29.497Z,4.70
2022-10-04T17:13:07.745Z,4.87
2022-10-04T17:15:48.970Z,4.20
2022-10-04T17:18:27.520Z,5.07
2022-10-04T17:20:59.841Z,4.60
2022-10-04T17:24:03.463Z,4.70
2022-10-04T17:26:49.522Z,5.10
2022-10-04T17:29:35.908Z,5.37
2022-10-04T17:32:17.494Z,5.83
2022-10-04T17:34:55.868Z,6.47
2022-10-04T17:37:35.934Z,6.17
2022-10-04T17:40:29.199Z,5.53
2022-10-04T17:43:05.940Z,6.93
2022-10-04T17:45:53.468Z,5.40
2022-10-04T17:48:43.006Z,6.10
2022-10-04T17:51:35.268Z,5.10
2022-10-04T17:54:30.112Z,5.53
2022-10-04T17:57:14.447Z,5.77
2022-10-04T17:59:47.213Z,6.00
2022-10-04T18:02:21.269Z,8.07
2022-10-04T18:04:54.622Z,6.13
2022-10-04T18:07:26.072Z,6.40
2022-10-04T18:09:57.258Z,6.83
2022-10-04T18:12:29.218Z,5.10
2022-10-04T18:15:07.228Z,5.47
2022-10-04T18:17:40.768Z,6.57
2022-10-04T18:20:28.164Z,7.80
2022-10-04T18:23:04.454Z,6.43
2022-10-04T18:25:34.075Z,6.97
2022-10-04T18:28:07.010Z,6.83
2022-10-04T18:30:53.874Z,8.03
2022-10-04T18:33:26.962Z,7.43
2022-10-04T18:36:04.781Z,9.20
2022-10-04T18:38:35.172Z,8.77
2022-10-04T18:41:13.104Z,7.90
2022-10-04T18:43:50.570Z,7.47
2022-10-04T18:46:22.125Z,9.27
2022-10-04T18:48:54.662Z,8.30
2022-10-04T18:51:27.497Z,7.43
2022-10-04T18:54:10.488Z,8.50
2022-10-04T18:56:50.380Z,8.27
2022-10-04T18:59:47.347Z,7.27
2022-10-04T19:02:24.221Z,6.90
2022-10-04T19:05:02.177Z,7.57
2022-10-04T19:07:41.751Z,6.70
2022-10-04T19:10:18.872Z,7.47
2022-10-04T19:13:22.931Z,7.07
2022-10-04T19:16:12.536Z,7.43
2022-10-04T19:19:03.854Z,7.17
2022-10-04T19:21:42.903Z,6.47
2022-10-04T19:24:31.008Z,6.80
2022-10-04T19:27:03.644Z,7.30
2022-10-04T19:29:46.646Z,7.60
2022-10-04T19:32:24.410Z,7.30
2022-10-04T19:35:04.643Z,7.57
2022-10-04T19:37:36.296Z,8.57
2022-10-04T19:40:11.203Z,7.83
2022-10-04T19:42:47.192Z,7.80
2022-10-04T19:45:27.099Z,8.20
2022-10-04T19:47:59.313Z,8.30
2022-10-04T19:50:32.524Z,7.73
2022-10-04T19:53:07.596Z,7.60
2022-10-04T19:55:44.041Z,7.60
2022-10-04T19:58:30.540Z,8.73
2022-10-04T20:00:59.317Z,7.40
2022-10-04T20:03:27.706Z,7.47
2022-10-04T20:05:57.621Z,7.10
2022-10-04T20:09:01.453Z,6.03
2022-10-04T20:11:49.612Z,7.03
2022-10-04T20:14:54.609Z,6.90
2022-10-04T20:17:33.940Z,6.60
2022-10-04T20:20:02.844Z,7.07
2022-10-04T20:22:57.759Z,6.53
2022-10-04T20:25:59.770Z,6.23
2022-10-04T20:28:46.171Z,6.70
2022-10-04T20:31:47.935Z,6.50
2022-10-04T20:34:34.282Z,6.53
2022-10-04T20:37:14.530Z,5.90
2022-10-04T20:40:02.339Z,6.50
2022-10-04T20:42:39.934Z,7.03
2022-10-04T20:45:24.325Z,7.27
2022-10-04T20:47:54.914Z,7.83
2022-10-04T20:50:31.691Z,8.30
2022-10-04T20:53:04.083Z,7.60
2022-10-04T20:55:36.227Z,8.63
2022-10-04T20:58:22.199Z,8.80
2022-10-04T21:00:55.803Z,8.57
2022-10-04T21:03:24.888Z,9.50
2022-10-04T21:06:05.921Z,9.60
2022-10-04T21:08:38.195Z,9.80
2022-10-04T21:11:20.755Z,8.37
2022-10-04T21:13:57.968Z,8.00
2022-10-04T21:16:44.952Z,8.50
2022-10-04T21:19:45.074Z,7.43
2022-10-04T21:22:38.328Z,8.50
2022-10-04T21:25:31.013Z,8.83
2022-10-04T21:28:38.867Z,7.97
2022-10-04T21:31:08.453Z,7.93
2022-10-04T21:33:37.746Z,7.73
2022-10-04T21:36:07.256Z,7.83
2022-10-04T21:38:35.686Z,7.70
2022-10-04T21:41:04.158Z,7.30
2022-10-04T21:43:32.468Z,7.10
2022-10-04T21:46:03.486Z,6.70
2022-10-04T21:48:33.009Z,8.37
2022-10-04T21:51:01.137Z,8.23
2022-10-04T21:53:29.231Z,7.70
2022-10-04T21:55:57.404Z,7.47
2022-10-04T21:58:28.217Z,6.27
2022-10-04T22:00:59.774Z,6.97
2022-10-04T22:03:28.184Z,7.00
2022-10-04T22:05:57.952Z,6.17
2022-10-04T22:08:26.690Z,7.47
2022-10-04T22:10:58.072Z,7.17
2022-10-04T22:13:26.791Z,6.87
2022-10-04T22:15:55.258Z,7.40
2022-10-04T22:18:23.578Z,7.40
2022-10-04T22:20:54.201Z,7.43
2022-10-04T22:23:27.362Z,7.17
2022-10-04T22:25:56.491Z,6.33
2022-10-04T22:28:26.511Z,7.07
2022-10-04T22:30:56.592Z,8.30
2022-10-04T22:33:32.055Z,7.10
2022-10-04T22:36:06.583Z,8.40
2022-10-04T22:38:36.471Z,7.20
2022-10-04T22:41:10.513Z,7.20
2022-10-04T22:43:39.168Z,8.10
2022-10-04T22:46:16.514Z,6.97
2022-10-04T22:48:45.805Z,7.13
2022-10-04T22:51:15.005Z,7.80
2022-10-04T22:53:51.855Z,7.50
2022-10-04T22:56:20.057Z,8.07
2022-10-04T22:58:48.381Z,7.00
2022-10-04T23:01:18.449Z,7.37
2022-10-04T23:03:48.703Z,6.80
2022-10-04T23:06:20.013Z,7.57
2022-10-04T23:08:49.810Z,7.20
2022-10-04T23:11:20.520Z,7.53
2022-10-04T23:13:49.051Z,8.80
2022-10-04T23:16:23.659Z,8.00
2022-10-04T23:19:01.603Z,7.70
2022-10-04T23:21:34.516Z,7.43
2022-10-04T23:24:15.722Z,8.13
2022-10-04T23:26:45.690Z,8.23
2022-10-04T23:29:19.822Z,7.53
2022-10-04T23:31:49.768Z,8.03
2022-10-04T23:34:20.688Z,8.10
2022-10-04T23:36:49.653Z,8.57
2022-10-04T23:39:25.071Z,8.10
2022-10-04T23:41:54.447Z,8.03
2022-10-04T23:44:25.046Z,8.20
2022-10-04T23:46:53.510Z,8.80
2022-10-04T23:49:22.633Z,8.57
2022-10-04T23:51:56.928Z,8.50
2022-10-04T23:54:26.988Z,8.47
2022-10-04T23:56:55.252Z,8.90
2022-10-04T23:59:25.518Z,10.17
